Time;durP1;ratioP1;P1;durP2;ratioP2;P2;SDS_P1;SDS_P2;PMS_P1;PMS_P2;Temp;Humidity;BMP_temperature;BMP_pressure;BME280_temperature;BME280_humidity;BME280_pressure;Samples;Min_cycle;Max_cycle;Signal;HPM_P1;HPM_P2
2021/11/08 00:01:47;;;;;;;14.28;9.73;;;;;;;9.87;65.21;100179.89;1791534;79;21121;-59
2021/11/08 00:04:14;;;;;;;17.60;9.50;;;;;;;9.89;65.12;100172.70;1748949;80;21143;-59
2021/11/08 00:06:41;;;;;;;14.90;10.32;;;;;;;9.97;64.99;100171.61;1729073;82;21790;-59
2021/11/08 00:09:10;;;;;;;15.63;10.03;;;;;;;10.04;64.73;100154.86;1754270;79;21005;-59
2021/11/08 00:11:39;;;;;;;13.88;9.78;;;;;;;10.08;64.72;100162.84;1749527;79;21088;-58
2021/11/08 00:14:10;;;;;;;16.27;9.80;;;;;;;10.07;64.51;100160.33;1719181;81;21353;-58
2021/11/08 00:22:02;;;;;;;;;;;;;;;9.98;64.27;100155.35;1787696;79;21014;-58
2021/11/08 00:24:31;;;;;;;19.25;10.35;;;;;;;9.99;64.24;100154.41;1791003;79;20731;-58
2021/11/08 00:26:58;;;;;;;14.35;9.95;;;;;;;9.91;64.32;100155.50;1772259;79;21053;-57
2021/11/08 00:29:25;;;;;;;15.15;10.13;;;;;;;9.86;64.30;100151.44;1738485;80;21660;-58
2021/11/08 00:31:52;;;;;;;18.85;10.63;;;;;;;9.85;64.24;100147.61;1735498;80;21160;-59
2021/11/08 00:34:20;;;;;;;14.05;9.63;;;;;;;9.81;64.11;100145.72;1737570;80;21392;-58
2021/11/08 00:36:50;;;;;;;14.07;9.80;;;;;;;9.80;64.13;100150.63;1739171;80;21042;-59
2021/11/08 00:40:21;;;;;;;15.98;9.93;;;;;;;9.93;64.06;100144.38;1814755;77;21964;-59
2021/11/08 00:42:47;;;;;;;14.87;10.43;;;;;;;9.97;63.87;100153.21;1788433;79;21101;-60
2021/11/08 00:45:13;;;;;;;18.50;10.82;;;;;;;9.93;63.78;100149.63;1785287;79;21943;-60
2021/11/08 00:47:41;;;;;;;19.12;10.65;;;;;;;9.88;64.01;100146.55;1757153;80;21105;-60
2021/11/08 00:50:08;;;;;;;15.93;10.35;;;;;;;9.86;64.08;100150.61;1781546;78;21369;-60
2021/11/08 00:52:36;;;;;;;16.80;10.00;;;;;;;9.84;64.08;100145.47;1761073;79;21043;-60
2021/11/08 00:55:04;;;;;;;15.98;10.48;;;;;;;9.80;64.10;100142.75;1759581;78;21050;-60
2021/11/08 00:57:34;;;;;;;19.07;10.88;;;;;;;9.74;64.14;100135.36;1783118;79;21130;-60
2021/11/08 01:00:00;;;;;;;14.50;10.08;;;;;;;9.70;64.26;100143.14;1763398;79;21041;-60
2021/11/08 01:02:29;;;;;;;15.48;10.23;;;;;;;9.69;64.35;100141.45;1785198;78;21029;-60
2021/11/08 01:04:57;;;;;;;15.45;10.43;;;;;;;9.76;64.18;100141.31;1784444;79;21090;-60
2021/11/08 01:07:23;;;;;;;16.02;10.98;;;;;;;9.80;64.03;100138.81;1785338;79;21106;-60
2021/11/08 01:09:50;;;;;;;14.90;10.68;;;;;;;9.79;63.97;100155.52;1781329;78;22996;-60
2021/11/08 01:12:17;;;;;;;17.17;11.40;;;;;;;9.74;64.08;100150.30;1814273;77;21175;-60
2021/11/08 01:14:44;;;;;;;17.37;11.15;;;;;;;9.68;64.10;100150.28;1810628;77;21072;-59
2021/11/08 01:17:11;;;;;;;16.42;10.90;;;;;;;9.62;64.21;100149.48;1816004;77;21066;-60
2021/11/08 01:19:38;;;;;;;16.70;10.68;;;;;;;9.55;64.36;100150.45;1812797;77;21608;-60
2021/11/08 01:22:07;;;;;;;18.10;11.25;;;;;;;9.51;64.44;100141.61;1743447;80;21217;-62
2021/11/08 01:24:36;;;;;;;17.60;10.78;;;;;;;9.44;64.59;100140.78;1787498;78;21113;-60
2021/11/08 01:27:03;;;;;;;18.37;11.33;;;;;;;9.40;64.77;100136.73;1788230;78;21061;-62
2021/11/08 01:29:31;;;;;;;15.60;11.05;;;;;;;9.39;64.71;100137.68;1827986;76;20979;-60
2021/11/08 01:32:00;;;;;;;16.00;10.13;;;;;;;9.44;64.64;100139.95;1813660;77;21035;-60
2021/11/08 01:34:29;;;;;;;17.40;11.45;;;;;;;9.45;64.80;100142.45;1785533;77;21638;-60
2021/11/08 01:36:59;;;;;;;18.55;11.43;;;;;;;9.48;64.75;100147.93;1785930;78;21086;-60
2021/11/08 01:39:34;;;;;;;19.77;11.75;;;;;;;9.47;64.80;100147.11;1780813;78;21092;-62
2021/11/08 01:42:04;;;;;;;17.77;11.97;;;;;;;9.44;64.65;100140.78;1774177;79;22412;-60
2021/11/08 01:44:31;;;;;;;16.85;11.63;;;;;;;9.42;64.69;100139.25;1773997;79;21096;-59
2021/11/08 01:46:59;;;;;;;17.52;12.18;;;;;;;9.38;64.72;100149.16;1768918;80;22386;-60
2021/11/08 01:49:26;;;;;;;20.60;11.53;;;;;;;9.37;64.76;100141.41;1786104;79;21037;-60
2021/11/08 01:51:52;;;;;;;19.05;12.40;;;;;;;9.38;64.71;100139.97;1785890;79;21093;-60
2021/11/08 01:54:19;;;;;;;19.85;11.05;;;;;;;9.44;64.49;100139.95;1768713;79;21113;-60
2021/11/08 01:56:46;;;;;;;17.20;11.50;;;;;;;9.46;64.56;100138.03;1789834;79;21050;-60
2021/11/08 01:59:13;;;;;;;19.37;11.95;;;;;;;9.42;64.64;100143.19;1796392;78;21780;-60
2021/11/08 02:01:40;;;;;;;18.27;11.83;;;;;;;9.39;64.68;100140.30;1786222;78;21671;-60
2021/11/08 02:04:07;;;;;;;16.23;11.75;;;;;;;9.35;64.78;100137.58;1764767;79;21062;-59
2021/11/08 02:06:33;;;;;;;17.65;12.10;;;;;;;9.32;64.83;100129.11;1783835;78;21561;-60
2021/11/08 02:08:59;;;;;;;18.32;11.83;;;;;;;9.27;64.80;100119.80;1785507;78;21160;-60
2021/11/08 02:11:26;;;;;;;19.57;12.43;;;;;;;9.22;64.88;100123.26;1793783;79;21721;-60
2021/11/08 02:13:53;;;;;;;20.68;11.10;;;;;;;9.18;64.88;100132.34;1797511;78;21101;-60
2021/11/08 02:16:20;;;;;;;19.30;12.40;;;;;;;9.15;64.92;100123.39;1792079;79;21819;-60
2021/11/08 02:18:46;;;;;;;19.20;12.28;;;;;;;9.22;64.81;100135.56;1771365;78;21651;-61
2021/11/08 02:21:13;;;;;;;17.82;12.00;;;;;;;9.22;64.84;100126.38;1792736;78;21398;-59
2021/11/08 02:23:42;;;;;;;18.48;12.70;;;;;;;9.19;64.88;100127.92;1788191;79;21119;-60
2021/11/08 02:26:14;;;;;;;18.40;12.55;;;;;;;9.12;64.92;100123.62;1785551;78;21601;-60
2021/11/08 02:28:38;;;;;;;21.40;12.80;;;;;;;9.07;65.12;100123.16;1790102;78;21093;-60
2021/11/08 02:31:06;;;;;;;19.60;12.55;;;;;;;9.00;65.19;100116.72;1787362;78;21047;-60
2021/11/08 02:33:34;;;;;;;18.77;12.10;;;;;;;8.94;65.36;100112.76;1789342;79;21050;-60
2021/11/08 02:36:01;;;;;;;19.25;12.07;;;;;;;8.91;65.47;100118.27;1791693;78;23349;-60
2021/11/08 02:38:28;;;;;;;17.80;11.55;;;;;;;8.88;65.50;100127.69;1796052;78;21128;-60
2021/11/08 02:40:58;;;;;;;16.48;12.07;;;;;;;8.89;65.48;100127.57;1801480;79;21031;-60
2021/11/08 02:43:26;;;;;;;18.02;11.33;;;;;;;8.97;65.34;100137.94;1802871;79;21492;-59
2021/11/08 02:46:05;;;;;;;18.92;11.05;;;;;;;9.01;65.27;100145.47;1771729;79;21592;-59
2021/11/08 02:48:25;;;;;;;17.95;12.18;;;;;;;9.00;65.14;100142.47;1797067;79;21411;-59
2021/11/08 02:51:03;;;;;;;18.57;11.63;;;;;;;8.91;65.28;100145.34;1797191;79;21082;-59
2021/11/08 02:53:24;;;;;;;20.55;12.75;;;;;;;8.85;65.47;100142.34;1796638;78;21676;-60
2021/11/08 02:55:52;;;;;;;20.10;11.97;;;;;;;8.78;65.55;100132.80;1795400;78;21545;-59
2021/11/08 02:58:19;;;;;;;19.32;12.30;;;;;;;8.71;65.73;100129.81;1799536;79;21537;-60
2021/11/08 03:00:47;;;;;;;19.98;12.23;;;;;;;8.63;65.80;100128.24;1798153;77;21062;-59
2021/11/08 03:03:13;;;;;;;20.62;13.22;;;;;;;8.59;65.98;100129.44;1799713;78;21082;-60
2021/11/08 03:05:40;;;;;;;19.75;11.88;;;;;;;8.54;66.01;100115.84;1801232;78;21102;-60
2021/11/08 03:08:09;;;;;;;17.40;11.35;;;;;;;8.54;66.04;100111.91;1801046;79;21176;-59
2021/11/08 03:10:38;;;;;;;15.72;11.20;;;;;;;8.64;65.88;100110.25;1800278;79;21125;-60
2021/11/08 03:13:16;;;;;;;19.80;12.47;;;;;;;8.68;65.70;100116.09;1800631;79;21200;-60
2021/11/08 03:15:56;;;;;;;17.62;11.97;;;;;;;8.66;65.73;100125.88;1766783;79;21082;-59
2021/11/08 03:18:30;;;;;;;16.55;12.23;;;;;;;8.63;65.72;100136.59;1795323;79;21054;-59
2021/11/08 03:20:57;;;;;;;17.85;11.75;;;;;;;8.51;65.81;100138.36;1797579;78;21666;-60
2021/11/08 03:23:23;;;;;;;17.77;12.53;;;;;;;8.44;66.04;100140.61;1796618;78;21773;-59
2021/11/08 03:26:09;;;;;;;19.12;12.50;;;;;;;8.37;66.07;100131.02;1795908;79;21155;-59
2021/11/08 03:28:27;;;;;;;15.60;10.88;;;;;;;8.32;66.22;100142.33;1798779;79;21043;-60
2021/11/08 03:30:56;;;;;;;18.60;12.75;;;;;;;8.26;66.32;100141.95;1770125;79;21109;-59
2021/11/08 03:33:24;;;;;;;17.05;11.45;;;;;;;8.26;66.37;100134.08;1772186;79;21096;-59
2021/11/08 03:35:52;;;;;;;16.85;10.38;;;;;;;8.32;66.34;100141.02;1803462;77;21102;-59
2021/11/08 03:38:18;;;;;;;21.75;12.43;;;;;;;8.38;66.24;100134.47;1802513;79;21035;-59
2021/11/08 03:40:46;;;;;;;16.07;11.20;;;;;;;8.40;66.21;100133.05;1773492;79;21093;-59
2021/11/08 03:43:17;;;;;;;18.50;12.93;;;;;;;8.40;66.22;100133.05;1764990;79;21036;-59
2021/11/08 03:45:44;;;;;;;16.82;10.50;;;;;;;8.38;66.20;100126.60;1766540;79;21365;-59
2021/11/08 03:48:13;;;;;;;19.15;11.85;;;;;;;8.37;66.23;100123.16;1763255;79;21090;-59
2021/11/08 03:50:39;;;;;;;18.25;11.48;;;;;;;8.38;66.06;100134.47;1767848;80;21093;-59
2021/11/08 03:53:06;;;;;;;19.80;11.55;;;;;;;8.34;66.01;100132.55;1739632;79;21716;-59
2021/11/08 03:55:33;;;;;;;18.67;11.45;;;;;;;8.30;65.97;100115.37;1739702;80;21115;-59
2021/11/08 03:57:59;;;;;;;18.70;11.70;;;;;;;8.26;65.97;100119.18;1734746;79;21424;-59
2021/11/08 04:00:26;;;;;;;17.17;11.35;;;;;;;8.23;65.96;100122.03;1767532;79;21150;-58
2021/11/08 04:02:56;;;;;;;15.13;11.20;;;;;;;8.25;65.91;100118.81;1765705;79;22489;-61
2021/11/08 04:05:23;;;;;;;16.60;10.95;;;;;;;8.28;65.78;100127.76;1768390;79;21064;-58
2021/11/08 04:07:51;;;;;;;16.65;11.25;;;;;;;8.31;65.75;100124.91;1767226;79;21020;-58
2021/11/08 04:10:18;;;;;;;18.57;11.97;;;;;;;8.33;65.70;100118.25;1766604;79;21968;-62
2021/11/08 04:12:46;;;;;;;15.18;10.35;;;;;;;8.30;65.68;100118.47;1738760;80;21557;-61
2021/11/08 04:15:15;;;;;;;17.02;11.15;;;;;;;8.23;65.72;100115.95;1768232;79;21090;-58
2021/11/08 04:17:44;;;;;;;15.55;10.90;;;;;;;8.15;65.83;100109.51;1765926;80;21118;-58
2021/11/08 04:20:17;;;;;;;16.40;11.30;;;;;;;8.10;66.06;100109.47;1763504;79;21083;-58
2021/11/08 04:22:47;;;;;;;17.55;10.95;;;;;;;8.06;66.10;100110.17;1733888;80;21093;-62
2021/11/08 04:25:14;;;;;;;18.12;11.75;;;;;;;8.04;66.11;100119.94;1759976;79;21088;-62
2021/11/08 04:27:45;;;;;;;18.73;10.95;;;;;;;7.99;66.19;100137.78;1762695;80;22583;-64
2021/11/08 04:30:12;;;;;;;15.25;10.32;;;;;;;7.97;66.21;100133.14;1764483;80;21520;-61
2021/11/08 04:32:49;;;;;;;19.30;10.15;;;;;;;8.04;66.07;100133.52;1733054;80;21333;-60
2021/11/08 04:35:13;;;;;;;16.70;10.75;;;;;;;8.08;66.12;100126.61;1744732;79;21139;-62
2021/11/08 04:40:18;;;;;;;22.27;10.85;;;;;;;8.09;66.07;100147.12;1772261;78;21171;-59
2021/11/08 04:55:28;;;;;;;15.48;10.45;;;;;;;7.66;66.64;100161.53;1808061;77;21056;-59
2021/11/08 04:58:26;;;;;;;17.67;10.23;;;;;;;7.62;66.78;100159.61;1780904;78;21574;-63
2021/11/08 05:27:53;;;;;;;13.90;9.25;;;;;;;7.46;67.23;100186.50;1745919;80;21077;-60
2021/11/08 05:30:11;;;;;;;17.48;10.05;;;;;;;7.42;67.31;100186.37;1766673;79;21119;-62
2021/11/08 05:32:42;;;;;;;21.50;10.03;;;;;;;7.40;67.54;100188.27;1800680;77;21350;-62
2021/11/08 05:35:12;;;;;;;19.73;10.53;;;;;;;7.41;67.54;100192.53;1795448;77;21040;-61
2021/11/08 05:37:43;;;;;;;15.32;10.00;;;;;;;7.37;67.45;100191.09;1803097;77;21025;-61
2021/11/08 05:40:17;;;;;;;16.82;11.35;;;;;;;7.34;67.40;100184.75;1763166;79;21556;-59
2021/11/08 05:42:44;;;;;;;16.73;10.32;;;;;;;7.31;67.55;100188.89;1738265;80;21875;-60
2021/11/08 05:45:14;;;;;;;14.93;9.23;;;;;;;7.33;67.50;100182.62;1713747;82;21184;-62
2021/11/08 05:47:41;;;;;;;14.18;8.38;;;;;;;7.40;67.41;100179.92;1753263;79;21076;-63
2021/11/08 05:50:09;;;;;;;15.85;9.55;;;;;;;7.48;67.28;100198.18;1756807;79;21588;-63
2021/11/08 05:52:35;;;;;;;14.50;9.98;;;;;;;7.51;67.20;100207.95;1732616;79;21477;-62
2021/11/08 05:55:02;;;;;;;18.10;9.55;;;;;;;7.48;67.17;100202.11;1739230;80;21118;-60
2021/11/08 05:57:42;;;;;;;16.62;9.55;;;;;;;7.46;67.23;100219.23;1755542;79;22148;-57
2021/11/08 06:48:36;;;;;;;15.48;8.18;;;;;;;7.53;67.10;100223.56;1746984;79;21084;-58
2021/11/08 06:49:30;;;;;;;14.68;9.20;;;;;;;7.94;65.98;100250.77;1746971;80;21174;-60
2021/11/08 06:51:54;;;;;;;15.40;8.20;;;;;;;7.93;65.98;100246.47;1779589;78;21388;-58
2021/11/08 06:54:22;;;;;;;13.60;8.45;;;;;;;7.97;66.02;100252.36;1762085;78;21635;-59
2021/11/08 06:56:55;;;;;;;16.82;8.43;;;;;;;8.03;65.72;100248.45;1749879;80;21628;-59
2021/11/08 06:59:19;;;;;;;13.05;7.78;;;;;;;8.18;65.70;100259.14;1747872;80;21100;-60
2021/11/08 07:01:48;;;;;;;17.95;9.73;;;;;;;8.28;65.40;100252.28;1769202;78;21041;-59
2021/11/08 07:04:16;;;;;;;15.80;9.10;;;;;;;8.35;65.24;100258.77;1777529;78;21147;-60
2021/11/08 07:06:43;;;;;;;12.85;8.28;;;;;;;8.41;65.29;100255.34;1782238;78;21066;-59
2021/11/08 07:09:12;;;;;;;14.78;9.15;;;;;;;8.47;64.90;100253.14;1780614;78;21429;-59
2021/11/08 07:11:39;;;;;;;15.85;8.75;;;;;;;8.53;64.79;100262.33;1778863;78;21058;-56
2021/11/08 07:14:07;;;;;;;13.85;8.18;;;;;;;8.55;64.34;100265.67;1778724;78;21539;-61
2021/11/08 07:16:35;;;;;;;15.40;9.25;;;;;;;8.52;64.34;100254.95;1780055;78;21371;-62
2021/11/08 07:19:01;;;;;;;12.73;7.03;;;;;;;8.59;64.44;100261.89;1758444;79;21487;-58
2021/11/08 07:21:28;;;;;;;15.35;7.42;;;;;;;8.70;64.32;100267.16;1779985;79;21042;-58
2021/11/08 07:23:54;;;;;;;16.15;8.90;;;;;;;8.74;63.99;100271.24;1778487;78;22468;-62
2021/11/08 07:26:21;;;;;;;13.58;7.72;;;;;;;8.76;64.23;100269.82;1778779;78;21046;-58
2021/11/08 07:28:47;;;;;;;13.32;8.53;;;;;;;8.79;64.24;100264.80;1748008;80;21290;-60
2021/11/08 07:31:14;;;;;;;12.63;7.78;;;;;;;8.79;63.84;100275.30;1749973;80;21132;-61
2021/11/08 07:33:40;;;;;;;12.35;7.78;;;;;;;8.77;64.01;100265.39;1780239;78;21132;-61
2021/11/08 07:36:06;;;;;;;13.70;8.78;;;;;;;8.77;63.97;100278.03;1746820;80;21145;-62
2021/11/08 07:38:33;;;;;;;15.60;8.15;;;;;;;8.75;63.99;100281.25;1778805;78;21563;-58
2021/11/08 07:41:01;;;;;;;10.95;7.53;;;;;;;8.71;64.05;100301.63;1762593;78;21043;-57
2021/11/08 07:43:27;;;;;;;11.40;7.33;;;;;;;8.71;64.02;100300.31;1784385;78;21084;-58
2021/11/08 07:45:54;;;;;;;13.80;8.13;;;;;;;8.78;64.03;100308.58;1785404;78;21010;-60
2021/11/08 07:48:21;;;;;;;11.85;7.03;;;;;;;8.83;63.85;100306.94;1784625;78;21014;-59
2021/11/08 07:50:48;;;;;;;15.72;8.33;;;;;;;8.81;63.84;100310.98;1787269;78;21160;-58
2021/11/08 07:53:15;;;;;;;11.65;7.00;;;;;;;8.80;63.92;100299.28;1787689;78;21494;-58
2021/11/08 07:55:44;;;;;;;15.93;7.45;;;;;;;8.80;64.01;100301.91;1789614;78;20989;-59
2021/11/08 07:58:10;;;;;;;13.43;7.85;;;;;;;8.81;64.02;100301.80;1786527;78;21009;-59
2021/11/08 08:00:39;;;;;;;13.30;8.30;;;;;;;8.82;63.99;100302.63;1782925;78;21061;-58
2021/11/08 08:03:06;;;;;;;13.62;7.33;;;;;;;8.84;64.16;100300.72;1758544;78;21113;-59
2021/11/08 08:05:33;;;;;;;18.20;7.67;;;;;;;8.92;63.89;100306.23;1759690;78;21120;-58
2021/11/08 08:08:00;;;;;;;10.50;6.92;;;;;;;9.03;63.29;100301.03;1783661;78;21109;-58
2021/11/08 08:10:26;;;;;;;12.88;7.33;;;;;;;9.13;62.92;100313.45;1783807;78;21460;-59
2021/11/08 08:12:54;;;;;;;10.72;6.60;;;;;;;9.15;63.01;100308.45;1781580;78;21144;-58
2021/11/08 08:15:20;;;;;;;14.13;7.45;;;;;;;9.19;63.22;100305.95;1784376;78;21082;-60
2021/11/08 08:17:47;;;;;;;12.18;8.13;;;;;;;9.23;62.87;100314.42;1785947;78;21104;-58
2021/11/08 08:20:17;;;;;;;10.75;6.47;;;;;;;9.24;62.61;100322.19;1782316;78;21050;-58
2021/11/08 08:22:44;;;;;;;12.30;7.00;;;;;;;9.25;62.44;100326.98;1761920;78;21381;-58
2021/11/08 08:25:11;;;;;;;9.70;6.20;;;;;;;9.24;62.65;100318.73;1750195;78;21122;-58
2021/11/08 08:27:38;;;;;;;12.28;7.62;;;;;;;9.27;62.67;100320.65;1760754;78;21124;-62
2021/11/08 08:30:06;;;;;;;11.22;5.80;;;;;;;9.32;62.35;100316.38;1784651;78;21543;-59
2021/11/08 08:32:33;;;;;;;9.45;5.80;;;;;;;9.43;62.14;100322.11;1780886;78;21164;-54
2021/11/08 08:34:59;;;;;;;11.95;6.97;;;;;;;9.45;61.88;100334.19;1760278;80;21113;-56
2021/11/08 08:37:28;;;;;;;12.30;6.37;;;;;;;9.45;61.77;100324.99;1758823;78;21058;-58
2021/11/08 08:39:54;;;;;;;11.12;5.90;;;;;;;9.45;62.17;100319.73;1784067;78;21089;-59
2021/11/08 08:42:21;;;;;;;11.10;6.15;;;;;;;9.51;61.96;100323.67;1784995;78;21163;-63
2021/11/08 08:44:51;;;;;;;14.13;7.17;;;;;;;9.54;61.60;100342.31;1765152;78;21058;-64
2021/11/08 08:47:17;;;;;;;13.58;7.03;;;;;;;9.56;61.83;100333.84;1790449;78;21078;-59
2021/11/08 08:49:44;;;;;;;20.25;7.10;;;;;;;9.61;61.93;100344.83;1766113;79;21041;-59
2021/11/08 08:52:10;;;;;;;10.90;6.33;;;;;;;9.65;61.58;100336.60;1787439;78;21074;-59
2021/11/08 08:54:38;;;;;;;11.68;6.47;;;;;;;9.71;61.34;100333.97;1769764;79;21496;-58
2021/11/08 08:57:06;;;;;;;11.50;6.58;;;;;;;9.84;61.14;100332.55;1791186;78;21105;-62
2021/11/08 08:59:34;;;;;;;12.88;6.33;;;;;;;9.95;60.93;100339.13;1785036;78;21073;-62
2021/11/08 09:02:01;;;;;;;12.20;6.47;;;;;;;10.00;60.59;100351.44;1781938;78;21099;-64
2021/11/08 09:04:28;;;;;;;12.33;6.65;;;;;;;9.99;60.60;100342.35;1764218;79;21106;-63
2021/11/08 09:06:55;;;;;;;11.00;5.47;;;;;;;9.97;60.75;100345.55;1785308;78;21978;-64
2021/11/08 09:09:23;;;;;;;11.30;6.90;;;;;;;9.96;61.04;100352.61;1787129;78;21038;-62
2021/11/08 09:11:52;;;;;;;12.45;6.40;;;;;;;9.96;60.88;100355.23;1786375;78;21506;-63
2021/11/08 09:14:18;;;;;;;10.05;5.87;;;;;;;9.95;60.82;100354.90;1765395;79;21062;-59
2021/11/08 09:16:46;;;;;;;11.65;5.70;;;;;;;9.96;60.92;100353.09;1786424;78;21509;-63
2021/11/08 09:19:12;;;;;;;10.48;5.35;;;;;;;9.96;60.15;100342.58;1785066;78;21062;-61
2021/11/08 09:21:40;;;;;;;12.55;5.90;;;;;;;9.98;59.97;100351.18;1784388;78;21057;-59
2021/11/08 09:24:07;;;;;;;9.48;5.60;;;;;;;9.99;60.10;100337.92;1784710;78;21030;-62
2021/11/08 09:26:34;;;;;;;10.00;5.85;;;;;;;10.04;60.14;100331.82;1765269;79;21575;-63
2021/11/08 09:29:02;;;;;;;9.28;4.83;;;;;;;10.21;60.29;100330.48;1762788;78;21718;-62
2021/11/08 09:31:29;;;;;;;10.95;6.45;;;;;;;10.39;59.77;100326.08;1787264;78;22007;-63
2021/11/08 09:34:09;;;;;;;9.63;5.40;;;;;;;10.46;58.91;100327.73;1787225;78;21090;-60
2021/11/08 09:36:35;;;;;;;9.88;5.12;;;;;;;10.49;58.76;100332.73;1774113;78;21104;-62
2021/11/08 09:39:03;;;;;;;8.35;4.72;;;;;;;10.48;58.95;100330.59;1776855;79;21593;-61
2021/11/08 09:41:35;;;;;;;10.35;5.20;;;;;;;10.49;58.84;100324.84;1786803;78;21007;-60
2021/11/08 09:44:05;;;;;;;11.03;5.90;;;;;;;10.52;58.83;100324.59;1800495;79;21129;-61
2021/11/08 09:46:32;;;;;;;9.80;5.05;;;;;;;10.54;58.76;100318.72;1773482;79;21144;-63
2021/11/08 09:49:01;;;;;;;8.58;4.95;;;;;;;10.59;58.23;100323.98;1800768;79;21038;-61
2021/11/08 09:51:28;;;;;;;9.68;5.30;;;;;;;10.68;57.71;100329.47;1801621;79;21066;-62
2021/11/08 09:53:56;;;;;;;12.03;5.25;;;;;;;10.72;57.66;100339.59;1773814;79;21081;-62
2021/11/08 09:56:24;;;;;;;7.45;4.65;;;;;;;10.77;57.47;100345.80;1769255;79;21188;-62
2021/11/08 09:58:51;;;;;;;8.23;5.12;;;;;;;10.76;57.21;100341.52;1773135;79;22222;-62
2021/11/08 10:01:20;;;;;;;8.75;4.87;;;;;;;10.81;57.41;100352.97;1799919;77;21493;-62
2021/11/08 10:03:46;;;;;;;10.28;5.15;;;;;;;10.85;56.88;100355.72;1771115;78;21737;-62
2021/11/08 10:06:13;;;;;;;8.95;5.33;;;;;;;10.83;56.67;100347.12;1805516;77;21349;-63
2021/11/08 10:08:40;;;;;;;8.95;4.33;;;;;;;10.83;56.94;100367.69;1800626;79;21109;-62
2021/11/08 10:11:13;;;;;;;10.48;5.75;;;;;;;10.83;56.20;100370.32;1771401;79;21133;-63
2021/11/08 10:13:41;;;;;;;7.75;4.85;;;;;;;10.75;55.48;100358.27;1772450;79;20980;-63
2021/11/08 10:16:11;;;;;;;8.95;4.78;;;;;;;10.64;55.82;100358.28;1799687;79;21066;-62
2021/11/08 10:18:40;;;;;;;8.88;5.03;;;;;;;10.59;55.78;100356.02;1799885;77;22590;-61
2021/11/08 10:21:14;;;;;;;9.03;5.47;;;;;;;10.54;56.23;100356.87;1798018;78;21465;-60
2021/11/08 10:23:43;;;;;;;10.13;5.12;;;;;;;10.51;56.08;100363.72;1799972;77;21543;-63
2021/11/08 10:26:13;;;;;;;9.95;5.65;;;;;;;10.49;56.11;100361.66;1778968;79;21078;-61
2021/11/08 10:28:40;;;;;;;8.70;4.95;;;;;;;10.47;56.12;100367.05;1802946;78;21054;-64
2021/11/08 10:31:11;;;;;;;7.17;4.28;;;;;;;10.45;56.63;100358.45;1799634;79;21113;-63
2021/11/08 10:33:39;;;;;;;9.65;4.85;;;;;;;10.50;56.67;100356.77;1801052;78;21472;-61
2021/11/08 10:36:16;;;;;;;10.75;4.87;;;;;;;10.57;56.20;100371.09;1771841;79;21137;-62
2021/11/08 10:38:45;;;;;;;9.95;5.03;;;;;;;10.62;56.26;100365.48;1795729;77;21405;-62
2021/11/08 10:41:22;;;;;;;9.10;4.53;;;;;;;10.67;55.65;100370.71;1771708;79;21081;-62
2021/11/08 10:43:54;;;;;;;8.98;4.03;;;;;;;10.71;54.59;100376.59;1788446;78;21488;-63
2021/11/08 10:46:27;;;;;;;9.75;3.42;;;;;;;10.74;53.94;100367.96;1795954;78;21057;-63
2021/11/08 10:48:59;;;;;;;11.78;3.92;;;;;;;10.82;53.86;100359.42;1769941;79;21548;-63
2021/11/08 10:51:27;;;;;;;6.70;3.47;;;;;;;10.95;53.36;100352.20;1768158;78;21506;-62
2021/11/08 10:54:10;;;;;;;7.10;3.60;;;;;;;11.05;52.85;100356.72;1785188;78;21568;-64
2021/11/08 10:56:47;;;;;;;10.75;4.03;;;;;;;11.12;52.71;100340.77;1790459;79;21104;-63
2021/11/08 10:59:20;;;;;;;7.85;3.92;;;;;;;11.22;52.40;100332.45;1789953;78;22320;-62
2021/11/08 11:01:55;;;;;;;7.50;3.60;;;;;;;11.26;51.68;100339.14;1789439;79;21536;-64
2021/11/08 11:04:45;;;;;;;7.00;3.53;;;;;;;11.24;51.71;100321.29;1767325;79;21124;-65
2021/11/08 11:07:31;;;;;;;6.05;3.33;;;;;;;11.26;51.38;100311.48;1789795;79;21092;-64
2021/11/08 11:10:18;;;;;;;6.97;3.33;;;;;;;11.31;51.62;100318.98;1771782;79;21087;-63
2021/11/08 11:12:47;;;;;;;9.10;3.77;;;;;;;11.41;51.50;100323.00;1804208;77;21595;-63
2021/11/08 11:15:23;;;;;;;5.97;2.75;;;;;;;11.48;51.14;100325.45;1761904;79;21546;-63
2021/11/08 11:17:55;;;;;;;5.92;2.70;;;;;;;11.53;51.42;100327.22;1786832;78;21081;-65
2021/11/08 11:20:23;;;;;;;6.45;2.50;;;;;;;11.60;50.07;100344.66;1789787;78;21090;-64
2021/11/08 11:23:09;;;;;;;5.03;2.22;;;;;;;11.51;47.52;100332.61;1790177;78;21067;-65
2021/11/08 11:25:38;;;;;;;7.55;2.30;;;;;;;11.46;48.39;100337.44;1791878;78;21251;-66
2021/11/08 11:28:06;;;;;;;6.00;2.65;;;;;;;11.38;47.80;100347.81;1790013;78;21629;-64
2021/11/08 11:30:37;;;;;;;4.80;2.10;;;;;;;11.31;48.14;100350.13;1785885;79;21101;-61
2021/11/08 11:33:11;;;;;;;4.95;2.42;;;;;;;11.25;48.47;100355.90;1791198;78;21108;-64
2021/11/08 11:35:49;;;;;;;;;;;;;;;11.20;48.87;100351.50;1794973;79;21077;-64
2021/11/08 11:38:23;;;;;;;4.78;1.90;;;;;;;11.20;49.26;100358.08;1787178;78;22258;-63
2021/11/08 11:41:01;;;;;;;6.80;2.50;;;;;;;11.17;49.41;100359.64;1789927;78;21089;-63
2021/11/08 11:43:35;;;;;;;6.17;2.40;;;;;;;11.19;49.17;100345.04;1798150;78;21094;-64
2021/11/08 11:46:02;;;;;;;6.92;2.83;;;;;;;11.18;48.85;100342.03;1798352;78;21613;-64
2021/11/08 11:48:31;;;;;;;6.83;3.17;;;;;;;11.13;49.21;100342.44;1775540;79;21090;-64
2021/11/08 11:50:58;;;;;;;9.33;3.22;;;;;;;11.12;49.53;100344.22;1774401;79;21082;-63
2021/11/08 11:53:25;;;;;;;5.42;2.25;;;;;;;11.18;49.61;100344.67;1801098;79;21031;-64
2021/11/08 11:55:52;;;;;;;6.08;2.70;;;;;;;11.23;49.85;100343.80;1802759;79;21066;-62
2021/11/08 11:58:20;;;;;;;5.95;2.50;;;;;;;11.24;49.69;100346.80;1802601;77;21128;-62
2021/11/08 12:00:49;;;;;;;7.75;2.83;;;;;;;11.24;49.63;100351.58;1799178;78;21080;-64
2021/11/08 12:03:15;;;;;;;7.30;2.70;;;;;;;11.25;49.46;100348.00;1801887;79;21066;-63
2021/11/08 12:05:44;;;;;;;7.92;2.65;;;;;;;11.25;49.47;100355.90;1802588;78;20993;-65
2021/11/08 12:08:12;;;;;;;7.97;2.92;;;;;;;11.23;49.56;100347.30;1801952;78;21030;-64
2021/11/08 12:10:50;;;;;;;6.67;2.72;;;;;;;11.23;49.53;100352.56;1800705;78;21223;-65
2021/11/08 12:13:21;;;;;;;6.67;3.05;;;;;;;11.19;49.46;100368.74;1795420;79;21093;-62
2021/11/08 12:15:47;;;;;;;5.40;2.52;;;;;;;11.12;49.62;100386.36;1802284;77;22134;-61
2021/11/08 12:18:16;;;;;;;7.90;3.25;;;;;;;11.09;49.84;100381.83;1798831;78;21038;-62
2021/11/08 12:20:51;;;;;;;6.22;2.90;;;;;;;11.06;50.07;100365.81;1805561;79;21068;-64
2021/11/08 12:23:21;;;;;;;5.97;2.92;;;;;;;11.04;49.70;100361.12;1800268;77;21737;-63
2021/11/08 12:25:48;;;;;;;8.03;3.02;;;;;;;11.05;50.15;100371.20;1799368;78;21024;-63
2021/11/08 12:28:21;;;;;;;9.10;3.33;;;;;;;11.07;50.46;100370.59;1798659;78;22423;-66
2021/11/08 12:30:51;;;;;;;6.55;3.10;;;;;;;11.10;50.61;100361.12;1770465;78;21078;-64
2021/11/08 12:33:30;;;;;;;6.03;2.80;;;;;;;11.15;50.50;100360.27;1796084;78;21521;-62
2021/11/08 12:36:07;;;;;;;7.80;3.50;;;;;;;11.17;50.30;100371.50;1798282;77;21042;-63
2021/11/08 12:38:38;;;;;;;6.08;2.65;;;;;;;11.19;50.51;100374.01;1768444;78;21101;-62
2021/11/08 12:41:14;;;;;;;7.60;3.42;;;;;;;11.20;50.54;100374.38;1769896;79;21121;-61
2021/11/08 12:43:46;;;;;;;8.28;2.90;;;;;;;11.18;50.38;100375.81;1800635;78;21125;-62
2021/11/08 12:46:19;;;;;;;8.08;2.58;;;;;;;11.15;50.44;100376.89;1796626;79;21564;-59
2021/11/08 12:48:48;;;;;;;7.40;2.83;;;;;;;11.12;50.25;100378.95;1796803;79;21526;-59
2021/11/08 12:51:17;;;;;;;6.55;2.52;;;;;;;11.09;50.16;100381.34;1801863;77;21533;-64
2021/11/08 12:54:01;;;;;;;7.58;2.77;;;;;;;11.04;50.13;100390.59;1802028;77;22539;-63
2021/11/08 12:57:26;;;;;;;6.67;2.87;;;;;;;11.02;50.45;100382.81;1874081;74;22413;-59
2021/11/08 12:59:59;;;;;;;7.05;3.00;;;;;;;10.97;50.34;100383.67;1834308;76;21025;-60
2021/11/08 13:02:31;;;;;;;6.65;2.87;;;;;;;10.99;50.47;100384.86;1843979;76;21110;-59
2021/11/08 13:05:00;;;;;;;7.05;2.52;;;;;;;11.00;50.68;100386.55;1839781;76;20864;-58
2021/11/08 13:07:30;;;;;;;6.42;2.62;;;;;;;11.01;50.87;100395.64;1841900;76;21031;-58